createdAt,value
2023-03-27T00:01:27.533Z,8.20
2023-03-27T00:03:55.589Z,8.10
2023-03-27T00:06:24.865Z,8.30
2023-03-27T00:08:52.001Z,8.20
2023-03-27T00:11:22.221Z,8.20
2023-03-27T00:13:51.411Z,8.20
2023-03-27T00:16:22.639Z,8.30
2023-03-27T00:18:50.404Z,8.20
2023-03-27T00:21:17.249Z,8.20
2023-03-27T00:23:44.057Z,8.20
2023-03-27T00:26:12.039Z,8.10
2023-03-27T00:28:39.070Z,8.00
2023-03-27T00:31:09.467Z,8.00
2023-03-27T00:33:36.318Z,8.10
2023-03-27T00:36:03.183Z,8.10
2023-03-27T00:38:30.023Z,7.90
2023-03-27T00:40:57.489Z,7.80
2023-03-27T00:43:34.667Z,7.80
2023-03-27T00:46:04.798Z,7.70
2023-03-27T00:48:33.139Z,7.70
2023-03-27T00:50:59.748Z,7.50
2023-03-27T00:53:29.039Z,7.40
2023-03-27T00:55:58.561Z,7.30
2023-03-27T00:58:27.366Z,7.10
2023-03-27T01:00:55.119Z,7.10
2023-03-27T01:03:22.863Z,6.90
2023-03-27T01:05:57.092Z,6.90
2023-03-27T01:08:24.768Z,7.00
2023-03-27T01:10:57.800Z,6.90
2023-03-27T01:13:27.837Z,7.00
2023-03-27T01:16:01.364Z,6.90
2023-03-27T01:18:48.601Z,7.00
2023-03-27T01:21:24.555Z,7.00
2023-03-27T01:24:11.380Z,7.10
2023-03-27T01:26:57.595Z,7.00
2023-03-27T01:29:40.562Z,7.00
2023-03-27T01:32:25.756Z,6.90
2023-03-27T01:35:14.588Z,6.80
2023-03-27T01:37:51.589Z,6.90
2023-03-27T01:40:22.336Z,6.90
2023-03-27T01:42:48.937Z,6.90
2023-03-27T01:45:18.628Z,7.00
2023-03-27T01:47:51.544Z,7.00
2023-03-27T01:50:21.488Z,7.00
2023-03-27T01:52:53.310Z,7.00
2023-03-27T01:55:24.113Z,7.00
2023-03-27T01:58:00.504Z,6.90
2023-03-27T02:00:28.167Z,7.00
2023-03-27T02:03:17.928Z,7.00
2023-03-27T02:05:46.842Z,7.00
2023-03-27T02:08:18.801Z,7.00
2023-03-27T02:10:48.140Z,7.00
2023-03-27T02:13:21.454Z,7.00
2023-03-27T02:15:49.325Z,7.00
2023-03-27T02:18:19.269Z,7.00
2023-03-27T02:20:45.919Z,7.00
2023-03-27T02:23:12.567Z,7.00
2023-03-27T02:25:45.968Z,7.00
2023-03-27T02:28:15.874Z,7.00
2023-03-27T02:30:42.492Z,7.00
2023-03-27T02:33:09.245Z,7.00
2023-03-27T02:35:46.124Z,7.00
2023-03-27T02:38:17.513Z,7.10
2023-03-27T02:40:56.577Z,7.20
2023-03-27T02:43:28.995Z,7.20
2023-03-27T02:46:02.455Z,7.10
2023-03-27T02:48:29.053Z,7.10
2023-03-27T02:50:59.043Z,7.20
2023-03-27T02:53:28.396Z,7.20
2023-03-27T02:55:57.243Z,7.20
2023-03-27T02:58:34.275Z,7.20
2023-03-27T03:01:03.720Z,7.20
2023-03-27T03:03:39.562Z,7.20
2023-03-27T03:06:07.200Z,7.10
2023-03-27T03:08:38.711Z,7.20
2023-03-27T03:11:10.695Z,7.10
2023-03-27T03:13:37.520Z,7.10
2023-03-27T03:16:04.528Z,7.10
2023-03-27T03:18:31.202Z,7.20
2023-03-27T03:20:58.098Z,7.30
2023-03-27T03:23:24.924Z,7.50
2023-03-27T03:25:52.688Z,7.50
2023-03-27T03:28:19.431Z,7.60
2023-03-27T03:30:50.462Z,7.60
2023-03-27T03:33:18.090Z,7.30
2023-03-27T03:35:48.535Z,7.10
2023-03-27T03:38:16.199Z,7.10
2023-03-27T03:40:42.856Z,6.90
2023-03-27T03:43:09.503Z,6.90
2023-03-27T03:45:36.140Z,6.70
2023-03-27T03:48:02.852Z,6.70
2023-03-27T03:50:29.487Z,6.60
2023-03-27T03:52:56.199Z,6.60
2023-03-27T03:55:22.790Z,6.40
2023-03-27T03:57:50.175Z,6.50
2023-03-27T04:00:17.217Z,6.50
2023-03-27T04:02:44.452Z,6.50
2023-03-27T04:05:11.155Z,6.50
2023-03-27T04:07:40.097Z,6.60
2023-03-27T04:10:08.699Z,6.60
2023-03-27T04:12:35.635Z,6.50
2023-03-27T04:15:02.412Z,6.50
2023-03-27T04:17:29.165Z,6.40
2023-03-27T04:19:55.867Z,6.40
2023-03-27T04:22:23.334Z,6.50
2023-03-27T04:24:50.553Z,6.50
2023-03-27T04:27:17.826Z,6.40
2023-03-27T04:29:47.288Z,6.50
2023-03-27T04:32:19.948Z,6.60
2023-03-27T04:34:48.206Z,6.40
2023-03-27T04:37:15.125Z,6.50
2023-03-27T04:39:46.370Z,6.60
2023-03-27T04:42:14.105Z,6.70
2023-03-27T04:44:41.180Z,6.50
2023-03-27T04:47:08.936Z,6.40
2023-03-27T04:49:40.676Z,6.40
2023-03-27T04:52:07.779Z,6.40
2023-03-27T04:54:34.902Z,6.30
2023-03-27T04:57:03.323Z,6.30
2023-03-27T04:59:33.544Z,6.40
2023-03-27T05:02:01.701Z,6.40
2023-03-27T05:04:28.906Z,6.50
2023-03-27T05:06:56.376Z,6.50
2023-03-27T05:09:25.014Z,6.50
2023-03-27T05:11:51.965Z,6.50
2023-03-27T05:14:19.416Z,6.40
2023-03-27T05:16:46.288Z,6.50
2023-03-27T05:19:13.210Z,6.60
2023-03-27T05:21:39.831Z,6.50
2023-03-27T05:24:06.578Z,6.60
2023-03-27T05:26:33.393Z,6.70
2023-03-27T05:29:00.356Z,6.60
2023-03-27T05:31:28.036Z,6.70
2023-03-27T05:33:54.958Z,6.80
2023-03-27T05:36:22.276Z,6.70
2023-03-27T05:38:48.921Z,6.70
2023-03-27T05:41:19.341Z,6.70
2023-03-27T05:43:45.980Z,6.90
2023-03-27T05:46:13.496Z,6.90
2023-03-27T05:48:48.236Z,6.90
2023-03-27T05:51:15.093Z,6.90
2023-03-27T05:53:42.149Z,6.90
2023-03-27T05:56:09.568Z,6.90
2023-03-27T05:58:36.442Z,6.90
2023-03-27T06:01:03.457Z,6.80
2023-03-27T06:03:30.491Z,6.90
2023-03-27T06:06:00.271Z,6.80
2023-03-27T06:08:27.493Z,6.80
2023-03-27T06:10:54.502Z,6.80
2023-03-27T06:13:21.632Z,6.70
2023-03-27T06:15:48.709Z,6.70
2023-03-27T06:18:15.398Z,6.70
2023-03-27T06:20:42.818Z,6.60
2023-03-27T06:23:09.584Z,6.60
2023-03-27T06:25:37.624Z,6.60
2023-03-27T06:28:06.992Z,6.50
2023-03-27T06:30:33.944Z,6.60
2023-03-27T06:33:00.913Z,6.30
2023-03-27T06:35:28.634Z,6.20
2023-03-27T06:37:55.955Z,6.10
2023-03-27T06:40:24.042Z,6.20
2023-03-27T06:42:50.876Z,6.10
2023-03-27T06:45:17.829Z,6.20
2023-03-27T06:47:54.852Z,6.20
2023-03-27T06:50:24.282Z,6.10
2023-03-27T06:52:51.025Z,6.10
2023-03-27T06:55:20.954Z,6.10
2023-03-27T06:57:48.815Z,6.10
2023-03-27T07:00:17.219Z,6.20
2023-03-27T07:02:43.862Z,6.00
2023-03-27T07:05:10.731Z,5.80
2023-03-27T07:07:39.585Z,5.60
2023-03-27T07:10:09.083Z,5.50
2023-03-27T07:12:36.011Z,5.30
2023-03-27T07:15:06.060Z,5.20
2023-03-27T07:17:45.877Z,5.10
2023-03-27T07:20:15.156Z,4.80
2023-03-27T07:22:44.681Z,4.80
2023-03-27T07:25:12.664Z,4.50
2023-03-27T07:27:39.387Z,4.40
2023-03-27T07:30:08.008Z,4.20
2023-03-27T07:32:37.498Z,4.00
2023-03-27T07:35:05.461Z,4.10
2023-03-27T07:37:32.413Z,4.10
2023-03-27T07:39:58.995Z,4.10
2023-03-27T07:42:26.042Z,4.20
2023-03-27T07:44:52.741Z,4.20
2023-03-27T07:47:19.384Z,4.10
2023-03-27T07:49:45.982Z,4.20
2023-03-27T07:52:14.733Z,4.20
2023-03-27T07:54:43.166Z,4.20
2023-03-27T07:57:10.299Z,4.10
2023-03-27T07:59:37.062Z,4.20
2023-03-27T08:02:03.843Z,4.10
2023-03-27T08:04:30.676Z,4.20
2023-03-27T08:06:57.395Z,4.20
2023-03-27T08:09:24.048Z,4.20
2023-03-27T08:11:51.097Z,4.10
2023-03-27T08:14:17.791Z,4.00
2023-03-27T08:16:44.708Z,4.00
2023-03-27T08:19:12.024Z,4.00
2023-03-27T08:21:38.733Z,3.90
2023-03-27T08:24:05.952Z,4.00
2023-03-27T08:26:33.108Z,4.00
2023-03-27T08:28:59.932Z,4.00
2023-03-27T08:31:30.521Z,4.00
2023-03-27T08:33:57.358Z,4.00
2023-03-27T08:36:24.140Z,4.00
2023-03-27T08:38:50.802Z,4.00
2023-03-27T08:41:30.717Z,4.00
2023-03-27T08:43:59.030Z,4.10
2023-03-27T08:46:28.866Z,4.20
2023-03-27T08:49:00.819Z,4.20
2023-03-27T08:51:36.844Z,4.00
2023-03-27T08:54:08.849Z,4.00
2023-03-27T08:56:37.229Z,4.10
2023-03-27T08:59:05.948Z,3.90
2023-03-27T09:01:41.244Z,4.10
2023-03-27T09:04:13.766Z,4.10
2023-03-27T09:06:52.725Z,4.20
2023-03-27T09:09:38.732Z,4.10
2023-03-27T09:12:24.514Z,4.30
2023-03-27T09:15:03.052Z,4.30
2023-03-27T09:17:37.749Z,4.40
2023-03-27T09:20:13.552Z,4.30
2023-03-27T09:22:44.203Z,4.20
2023-03-27T09:25:23.465Z,4.00
2023-03-27T09:27:52.285Z,3.70
2023-03-27T09:30:25.007Z,3.60
2023-03-27T09:32:54.191Z,3.70
2023-03-27T09:35:21.614Z,3.80
2023-03-27T09:37:50.542Z,4.00
2023-03-27T09:40:31.386Z,3.90
2023-03-27T09:43:08.219Z,4.10
2023-03-27T09:45:39.098Z,4.30
2023-03-27T09:48:11.970Z,4.50
2023-03-27T09:50:49.230Z,4.70
2023-03-27T09:53:18.220Z,4.80
2023-03-27T09:55:50.676Z,4.90
2023-03-27T09:58:20.574Z,4.90
2023-03-27T10:00:48.137Z,4.90
2023-03-27T10:03:16.968Z,5.00
2023-03-27T10:05:44.271Z,4.90
2023-03-27T10:08:27.402Z,4.80
2023-03-27T10:10:58.347Z,5.00
2023-03-27T10:13:27.246Z,5.00
2023-03-27T10:16:02.867Z,5.10
2023-03-27T10:18:30.643Z,5.20
2023-03-27T10:20:59.446Z,5.20
2023-03-27T10:23:26.225Z,5.30
2023-03-27T10:25:57.477Z,5.40
2023-03-27T10:28:36.435Z,5.50
2023-03-27T10:31:04.327Z,5.50
2023-03-27T10:33:31.682Z,5.60
2023-03-27T10:35:58.875Z,5.50
2023-03-27T10:38:44.896Z,5.90
2023-03-27T10:41:28.319Z,5.80
2023-03-27T10:44:12.430Z,5.60
2023-03-27T10:46:43.493Z,5.60
2023-03-27T10:49:10.227Z,5.70
2023-03-27T10:51:51.397Z,5.80
2023-03-27T10:54:21.160Z,5.70
2023-03-27T10:56:47.876Z,5.70
2023-03-27T10:59:41.453Z,5.70
2023-03-27T11:02:25.710Z,5.80
2023-03-27T11:04:58.295Z,5.90
2023-03-27T11:07:47.688Z,5.70
2023-03-27T11:10:18.501Z,5.90
2023-03-27T11:13:03.925Z,5.80
2023-03-27T11:15:38.246Z,5.90
2023-03-27T11:18:10.524Z,5.90
2023-03-27T11:20:59.547Z,5.80
2023-03-27T11:23:35.330Z,5.60
2023-03-27T11:26:03.855Z,5.60
2023-03-27T11:28:41.221Z,5.50
2023-03-27T11:31:34.206Z,5.50
2023-03-27T11:34:06.443Z,5.50
2023-03-27T11:36:37.584Z,5.40
2023-03-27T11:39:10.061Z,5.30
2023-03-27T11:41:36.795Z,5.30
2023-03-27T11:44:04.068Z,5.30
2023-03-27T11:46:48.795Z,5.20
2023-03-27T11:49:34.232Z,5.20
2023-03-27T11:52:08.990Z,5.30
2023-03-27T11:54:38.636Z,5.40
2023-03-27T11:57:08.476Z,5.50
2023-03-27T11:59:41.699Z,5.70
2023-03-27T12:02:17.541Z,5.50
2023-03-27T12:04:53.149Z,5.40
2023-03-27T12:07:35.394Z,5.20
2023-03-27T12:10:28.536Z,5.40
2023-03-27T12:12:55.902Z,5.30
2023-03-27T12:15:42.936Z,5.40
2023-03-27T12:18:21.786Z,5.40
2023-03-27T12:20:53.774Z,5.10
2023-03-27T12:23:20.561Z,5.00
2023-03-27T12:25:59.050Z,5.00
2023-03-27T12:28:45.052Z,4.80
2023-03-27T12:31:13.343Z,4.70
2023-03-27T12:33:40.125Z,4.60
2023-03-27T12:36:10.735Z,4.70
2023-03-27T12:38:39.197Z,4.20
2023-03-27T12:41:06.393Z,3.80
2023-03-27T12:43:39.460Z,3.40
2023-03-27T12:46:07.150Z,3.20
2023-03-27T12:48:45.769Z,3.00
2023-03-27T12:51:15.023Z,2.80
2023-03-27T12:53:41.972Z,2.60
2023-03-27T12:56:17.767Z,2.60
2023-03-27T12:58:46.018Z,2.50
2023-03-27T13:01:20.054Z,2.60
2023-03-27T13:04:05.739Z,2.60
2023-03-27T13:06:50.932Z,2.50
2023-03-27T13:09:17.551Z,2.50
2023-03-27T13:11:48.030Z,2.50
2023-03-27T13:14:27.108Z,2.50
2023-03-27T13:16:53.720Z,2.60
2023-03-27T13:19:20.330Z,2.60
2023-03-27T13:21:56.150Z,2.70
2023-03-27T13:24:41.608Z,2.80
2023-03-27T13:27:18.973Z,2.90
2023-03-27T13:29:52.576Z,3.00
2023-03-27T13:32:48.578Z,3.00
2023-03-27T13:35:21.595Z,3.10
2023-03-27T13:37:58.194Z,3.00
2023-03-27T13:40:34.493Z,2.90
2023-03-27T13:43:05.129Z,3.00
2023-03-27T13:45:52.130Z,3.00
2023-03-27T13:48:18.748Z,3.10
2023-03-27T13:51:04.347Z,3.10
2023-03-27T13:53:46.822Z,3.10
2023-03-27T13:56:34.288Z,3.10
2023-03-27T13:59:22.938Z,3.20
2023-03-27T14:02:08.510Z,3.10
2023-03-27T14:04:41.388Z,3.20
2023-03-27T14:07:26.714Z,3.30
2023-03-27T14:09:59.314Z,3.40
2023-03-27T14:12:40.683Z,3.50
2023-03-27T14:15:22.727Z,3.60
2023-03-27T14:17:52.531Z,3.80
2023-03-27T14:20:27.334Z,4.00
2023-03-27T14:23:00.641Z,4.10
2023-03-27T14:25:34.266Z,4.10
2023-03-27T14:28:01.388Z,4.10
2023-03-27T14:30:29.513Z,4.10
2023-03-27T14:32:57.568Z,4.10
2023-03-27T14:35:36.011Z,4.10
2023-03-27T14:38:05.309Z,4.10
2023-03-27T14:40:34.719Z,4.00
2023-03-27T14:43:02.337Z,4.00
2023-03-27T14:45:31.677Z,4.10
2023-03-27T14:48:04.766Z,4.40
2023-03-27T14:50:34.471Z,4.60
2023-03-27T14:53:05.543Z,4.70
2023-03-27T14:55:34.368Z,4.70
2023-03-27T14:58:10.462Z,4.70
2023-03-27T15:00:39.460Z,4.60
2023-03-27T15:03:14.686Z,4.90
2023-03-27T15:05:57.253Z,4.90
2023-03-27T15:08:31.169Z,4.90
2023-03-27T15:10:58.055Z,4.90
2023-03-27T15:13:25.853Z,5.00
2023-03-27T15:15:55.940Z,5.10
2023-03-27T15:18:31.310Z,5.30
2023-03-27T15:21:04.205Z,5.50
2023-03-27T15:23:34.169Z,5.30
2023-03-27T15:26:14.899Z,5.10
2023-03-27T15:29:08.916Z,4.80
2023-03-27T15:31:36.392Z,4.60
2023-03-27T15:34:23.852Z,4.50
2023-03-27T15:36:55.731Z,4.50
2023-03-27T15:39:22.930Z,4.50
2023-03-27T15:41:50.813Z,4.60
2023-03-27T15:44:19.465Z,4.70
2023-03-27T15:46:48.686Z,4.90
2023-03-27T15:49:21.480Z,4.90
2023-03-27T15:51:51.485Z,4.90
2023-03-27T15:54:25.865Z,4.80
2023-03-27T15:56:52.718Z,4.80
2023-03-27T15:59:37.755Z,4.60
2023-03-27T16:02:19.325Z,4.60
2023-03-27T16:04:57.046Z,4.50
2023-03-27T16:07:23.636Z,4.70
2023-03-27T16:10:10.482Z,5.20
2023-03-27T16:12:43.165Z,5.60
2023-03-27T16:15:28.626Z,5.80
2023-03-27T16:17:56.583Z,5.90
2023-03-27T16:20:23.277Z,5.90
2023-03-27T16:22:50.174Z,5.70
2023-03-27T16:25:16.946Z,5.20
2023-03-27T16:27:51.167Z,4.80
2023-03-27T16:30:23.518Z,4.80
2023-03-27T16:32:51.001Z,5.40
2023-03-27T16:35:18.322Z,5.00
2023-03-27T16:37:45.133Z,4.50
2023-03-27T16:40:12.350Z,4.30
2023-03-27T16:42:39.095Z,4.20
2023-03-27T16:45:06.304Z,4.00
2023-03-27T16:47:33.078Z,3.90
2023-03-27T16:50:11.013Z,3.90
2023-03-27T16:52:38.206Z,4.00
2023-03-27T16:55:07.198Z,3.80
2023-03-27T16:57:34.396Z,3.80
2023-03-27T17:00:01.196Z,3.70
2023-03-27T17:02:28.907Z,3.80
2023-03-27T17:04:55.728Z,3.70
2023-03-27T17:07:24.961Z,3.80
2023-03-27T17:09:51.647Z,3.80
2023-03-27T17:12:18.390Z,3.70
2023-03-27T17:14:45.251Z,3.60
2023-03-27T17:17:11.952Z,3.50
2023-03-27T17:19:38.588Z,3.40
2023-03-27T17:22:05.222Z,3.20
2023-03-27T17:24:45.684Z,3.10
2023-03-27T17:27:20.552Z,3.10
2023-03-27T17:29:47.316Z,3.00
2023-03-27T17:32:15.349Z,2.80
2023-03-27T17:34:42.637Z,2.80
2023-03-27T17:37:09.322Z,2.80
2023-03-27T17:39:36.012Z,2.70
2023-03-27T17:42:02.931Z,2.70
2023-03-27T17:44:29.684Z,2.60
2023-03-27T17:46:56.435Z,2.70
2023-03-27T17:49:23.066Z,2.80
2023-03-27T17:51:49.697Z,2.90
2023-03-27T17:54:17.345Z,2.80
2023-03-27T17:56:44.090Z,2.80
2023-03-27T17:59:10.778Z,3.00
2023-03-27T18:01:37.509Z,3.20
2023-03-27T18:04:04.339Z,3.20
2023-03-27T18:06:31.195Z,3.00
2023-03-27T18:08:58.113Z,2.70
2023-03-27T18:11:24.876Z,2.70
2023-03-27T18:13:53.296Z,2.50
2023-03-27T18:16:23.026Z,2.40
2023-03-27T18:18:52.122Z,2.40
2023-03-27T18:21:18.869Z,2.40
2023-03-27T18:23:46.707Z,2.40
2023-03-27T18:26:13.895Z,2.40
2023-03-27T18:28:43.872Z,2.50
2023-03-27T18:31:11.956Z,2.50
2023-03-27T18:33:38.839Z,2.30
2023-03-27T18:36:10.477Z,2.30
2023-03-27T18:38:42.528Z,2.20
2023-03-27T18:41:09.315Z,2.10
2023-03-27T18:43:36.621Z,2.00
2023-03-27T18:46:05.543Z,2.00
2023-03-27T18:48:32.224Z,2.00
2023-03-27T18:51:00.507Z,2.00
2023-03-27T18:53:27.554Z,2.00
2023-03-27T18:55:54.333Z,2.00
2023-03-27T18:58:24.386Z,1.80
2023-03-27T19:00:51.545Z,1.80
2023-03-27T19:03:20.222Z,1.70
2023-03-27T19:05:47.836Z,1.60
2023-03-27T19:08:14.972Z,1.60
2023-03-27T19:10:41.803Z,1.50
2023-03-27T19:13:08.682Z,1.50
2023-03-27T19:15:38.024Z,1.50
2023-03-27T19:18:04.761Z,1.50
2023-03-27T19:20:31.450Z,1.50
2023-03-27T19:22:58.049Z,1.50
2023-03-27T19:25:24.686Z,1.50
2023-03-27T19:27:51.363Z,1.50
2023-03-27T19:30:18.440Z,1.40
2023-03-27T19:32:45.351Z,1.40
2023-03-27T19:35:12.319Z,1.40
2023-03-27T19:37:38.949Z,1.40
2023-03-27T19:40:06.026Z,1.40
2023-03-27T19:42:32.722Z,1.40
2023-03-27T19:44:59.613Z,1.40
2023-03-27T19:47:26.302Z,1.50
2023-03-27T19:49:53.723Z,1.50
2023-03-27T19:52:20.457Z,1.60
2023-03-27T19:54:47.282Z,1.60
2023-03-27T19:57:14.379Z,1.60
2023-03-27T19:59:41.124Z,1.60
2023-03-27T20:02:07.827Z,1.60
2023-03-27T20:04:34.505Z,1.70
2023-03-27T20:07:02.044Z,1.80
2023-03-27T20:09:29.027Z,1.80
2023-03-27T20:11:56.869Z,1.80
2023-03-27T20:14:25.747Z,1.80
2023-03-27T20:16:52.820Z,1.80
2023-03-27T20:19:20.925Z,1.80
2023-03-27T20:21:49.310Z,1.90
2023-03-27T20:24:18.027Z,1.90
2023-03-27T20:26:48.501Z,2.00
2023-03-27T20:29:18.118Z,2.10
2023-03-27T20:31:45.318Z,2.10
2023-03-27T20:34:12.121Z,2.00
2023-03-27T20:36:39.163Z,2.10
2023-03-27T20:39:20.245Z,2.10
2023-03-27T20:41:49.042Z,2.00
2023-03-27T20:44:16.413Z,2.10
2023-03-27T20:47:03.887Z,2.00
2023-03-27T20:49:40.454Z,2.00
2023-03-27T20:52:08.703Z,2.00
2023-03-27T20:54:35.416Z,2.10
2023-03-27T20:57:02.872Z,2.10
2023-03-27T20:59:31.683Z,2.10
2023-03-27T21:01:59.238Z,2.10
2023-03-27T21:04:26.882Z,2.10
2023-03-27T21:07:04.260Z,2.10
2023-03-27T21:09:42.957Z,2.10
2023-03-27T21:12:09.649Z,2.30
2023-03-27T21:14:36.498Z,2.20
2023-03-27T21:17:03.318Z,2.30
2023-03-27T21:19:30.427Z,2.30
2023-03-27T21:21:57.110Z,2.20
2023-03-27T21:24:23.816Z,2.30
2023-03-27T21:26:50.507Z,2.30
2023-03-27T21:29:17.574Z,2.20
2023-03-27T21:31:44.281Z,2.40
2023-03-27T21:34:12.099Z,2.40
2023-03-27T21:36:40.035Z,2.30
2023-03-27T21:53:56.411Z,2.70
2023-03-27T21:56:23.002Z,2.70
2023-03-27T21:58:49.723Z,2.60
2023-03-27T22:01:16.554Z,2.60
2023-03-27T22:03:43.402Z,2.50
2023-03-27T22:06:13.388Z,2.60
2023-03-27T22:08:41.281Z,2.80
2023-03-27T22:11:07.961Z,2.80
2023-03-27T22:13:36.091Z,2.80
2023-03-27T22:16:14.139Z,2.70
2023-03-27T22:18:41.263Z,2.60
2023-03-27T22:21:11.921Z,2.60
2023-03-27T22:23:39.823Z,2.70
2023-03-27T22:26:06.952Z,2.70
2023-03-27T22:28:33.729Z,2.80
2023-03-27T22:31:00.633Z,2.90
2023-03-27T22:33:27.298Z,2.90
2023-03-27T22:35:54.043Z,2.90
2023-03-27T22:38:20.712Z,2.70
2023-03-27T22:40:47.315Z,2.70
2023-03-27T22:43:22.746Z,2.90
2023-03-27T22:46:14.019Z,2.80
2023-03-27T22:48:40.881Z,2.70
2023-03-27T22:51:08.030Z,2.70
2023-03-27T22:53:35.375Z,2.60
2023-03-27T22:56:02.725Z,2.60
2023-03-27T22:58:30.830Z,2.70
2023-03-27T23:00:57.618Z,2.80
2023-03-27T23:03:25.605Z,2.90
2023-03-27T23:05:52.449Z,2.80
2023-03-27T23:08:20.064Z,2.80
2023-03-27T23:10:46.794Z,2.90
2023-03-27T23:13:13.512Z,2.90
2023-03-27T23:15:40.231Z,2.90
2023-03-27T23:18:06.924Z,3.00
2023-03-27T23:20:33.614Z,2.90
2023-03-27T23:23:00.390Z,2.90
2023-03-27T23:25:27.010Z,2.80
2023-03-27T23:27:53.679Z,3.00
2023-03-27T23:30:20.398Z,3.10
2023-03-27T23:32:47.161Z,3.10
2023-03-27T23:35:13.873Z,3.10
2023-03-27T23:37:40.626Z,3.00
2023-03-27T23:40:07.692Z,3.10
2023-03-27T23:42:34.315Z,3.00
2023-03-27T23:45:01.159Z,3.10
2023-03-27T23:47:27.795Z,3.10
2023-03-27T23:49:54.538Z,3.20
2023-03-27T23:52:21.190Z,3.30
2023-03-27T23:54:47.852Z,3.20
2023-03-27T23:57:14.560Z,3.30
2023-03-27T23:59:41.460Z,3.20
